createdAt,value
2022-08-05T00:00:50.296Z,21.73
2022-08-05T00:03:52.177Z,21.82
2022-08-05T00:06:55.174Z,21.79
2022-08-05T00:09:57.439Z,21.96
2022-08-05T00:13:00.311Z,22.10
2022-08-05T00:16:02.268Z,22.30
2022-08-05T00:19:04.561Z,22.23
2022-08-05T00:22:07.594Z,22.00
2022-08-05T00:25:13.164Z,21.98
2022-08-05T00:28:29.483Z,22.03
2022-08-05T00:31:52.999Z,21.77
2022-08-05T00:35:06.083Z,21.39
2022-08-05T00:38:10.477Z,21.25
2022-08-05T00:41:12.122Z,21.38
2022-08-05T00:44:13.961Z,21.46
2022-08-05T00:47:16.480Z,21.61
2022-08-05T00:50:18.819Z,21.15
2022-08-05T00:54:00.206Z,20.99
2022-08-05T00:56:51.614Z,20.39
2022-08-05T00:59:53.600Z,20.46
2022-08-05T01:02:55.737Z,20.75
2022-08-05T01:05:57.749Z,20.83
2022-08-05T01:09:03.003Z,21.18
2022-08-05T01:12:09.328Z,21.45
2022-08-05T01:15:36.347Z,21.55
2022-08-05T01:18:42.745Z,21.21
2022-08-05T01:21:55.863Z,21.46
2022-08-05T01:25:13.547Z,21.18
2022-08-05T01:28:24.413Z,20.95
2022-08-05T01:31:28.053Z,20.88
2022-08-05T01:34:32.198Z,20.12
2022-08-05T01:37:44.252Z,19.65
2022-08-05T01:40:46.694Z,19.56
2022-08-05T01:43:52.251Z,19.50
2022-08-05T01:46:54.421Z,19.42
2022-08-05T01:50:01.535Z,19.76
2022-08-05T01:53:06.734Z,19.90
2022-08-05T01:56:12.229Z,20.14
2022-08-05T01:59:16.780Z,20.47
2022-08-05T02:02:20.234Z,20.72
2022-08-05T02:05:34.160Z,20.86
2022-08-05T02:08:44.733Z,21.06
2022-08-05T02:12:01.426Z,21.13
2022-08-05T02:15:06.965Z,20.99
2022-08-05T02:18:31.307Z,20.98
2022-08-05T02:21:43.349Z,20.57
2022-08-05T02:24:52.204Z,20.43
2022-08-05T02:27:58.213Z,20.51
2022-08-05T02:31:07.743Z,20.79
2022-08-05T02:34:17.354Z,20.85
2022-08-05T02:37:21.324Z,20.98
2022-08-05T02:40:24.359Z,21.09
2022-08-05T02:43:28.415Z,21.00
2022-08-05T02:46:32.047Z,20.73
2022-08-05T02:49:37.769Z,20.35
2022-08-05T02:52:44.339Z,20.47
2022-08-05T02:55:54.377Z,20.11
2022-08-05T02:59:02.397Z,19.88
2022-08-05T03:02:06.276Z,19.89
2022-08-05T03:05:09.221Z,19.82
2022-08-05T03:08:12.702Z,19.55
2022-08-05T03:11:55.278Z,19.93
2022-08-05T03:14:45.756Z,20.03
2022-08-05T03:17:49.235Z,19.66
2022-08-05T03:20:56.013Z,19.53
2022-08-05T03:23:57.932Z,19.65
2022-08-05T03:26:59.978Z,19.58
2022-08-05T03:30:08.794Z,19.21
2022-08-05T03:33:12.269Z,18.95
2022-08-05T03:36:14.288Z,18.86
2022-08-05T03:39:20.183Z,18.62
2022-08-05T03:42:32.890Z,18.74
2022-08-05T03:45:58.000Z,18.75
2022-08-05T03:49:02.232Z,18.59
2022-08-05T03:52:37.482Z,18.46
2022-08-05T03:56:05.294Z,18.43
2022-08-05T03:58:53.621Z,18.31
2022-08-05T04:01:58.980Z,18.48
2022-08-05T04:05:02.767Z,18.73
2022-08-05T04:08:14.537Z,18.91
2022-08-05T04:11:47.621Z,18.66
2022-08-05T04:14:49.620Z,18.58
2022-08-05T04:17:56.638Z,18.49
2022-08-05T04:21:00.724Z,18.40
2022-08-05T04:24:04.998Z,18.37
2022-08-05T04:27:08.975Z,18.61
2022-08-05T04:30:10.981Z,18.56
2022-08-05T04:33:12.886Z,18.59
2022-08-05T04:36:49.519Z,18.69
2022-08-05T04:39:37.645Z,18.88
2022-08-05T04:42:40.922Z,18.94
2022-08-05T04:45:49.082Z,18.76
2022-08-05T04:48:58.864Z,18.79
2022-08-05T04:52:02.014Z,18.75
2022-08-05T04:55:14.784Z,18.81
2022-08-05T04:58:17.730Z,18.85
2022-08-05T05:02:05.971Z,18.95
2022-08-05T05:04:49.905Z,19.06
2022-08-05T05:07:56.469Z,19.12
2022-08-05T05:11:02.704Z,19.31
2022-08-05T05:14:04.432Z,19.42
2022-08-05T05:17:10.337Z,19.57
2022-08-05T05:20:13.056Z,19.79
2022-08-05T05:23:19.849Z,19.83
2022-08-05T05:26:28.181Z,20.01
2022-08-05T05:30:03.990Z,20.10
2022-08-05T05:32:56.104Z,20.08
2022-08-05T05:35:57.874Z,20.13
2022-08-05T05:39:01.000Z,20.22
2022-08-05T05:42:05.715Z,20.26
2022-08-05T05:45:09.354Z,20.40
2022-08-05T05:48:11.006Z,20.57
2022-08-05T05:51:18.673Z,20.74
2022-08-05T05:54:21.770Z,20.75
2022-08-05T05:57:52.390Z,20.88
2022-08-05T06:00:54.892Z,20.89
2022-08-05T06:04:01.683Z,20.95
2022-08-05T06:07:05.306Z,21.04
2022-08-05T06:10:10.489Z,21.12
2022-08-05T06:13:12.330Z,21.28
2022-08-05T06:16:29.756Z,21.41
2022-08-05T06:22:36.823Z,21.63
2022-08-05T06:26:12.919Z,21.72
2022-08-05T06:29:03.499Z,21.77
2022-08-05T06:32:25.190Z,21.85
2022-08-05T06:36:07.641Z,21.92
2022-08-05T06:38:49.780Z,22.00
2022-08-05T06:41:52.827Z,22.09
2022-08-05T06:44:54.577Z,22.15
2022-08-05T06:48:44.270Z,22.27
2022-08-05T06:51:26.638Z,22.39
2022-08-05T06:54:31.440Z,22.38
2022-08-05T06:57:57.444Z,22.43
2022-08-05T07:00:58.207Z,22.48
2022-08-05T07:04:00.372Z,22.60
2022-08-05T07:07:02.597Z,22.68
2022-08-05T07:10:10.208Z,22.78
2022-08-05T07:13:17.999Z,22.90
2022-08-05T07:18:00.305Z,22.99
2022-08-05T07:23:26.130Z,23.15
2022-08-05T07:26:28.314Z,23.23
2022-08-05T07:30:23.947Z,23.28
2022-08-05T07:32:53.514Z,23.52
2022-08-05T07:36:02.053Z,23.50
2022-08-05T07:39:08.407Z,23.64
2022-08-05T07:42:31.857Z,23.71
2022-08-05T07:45:57.353Z,23.78
2022-08-05T07:49:02.656Z,23.89
2022-08-05T07:52:06.929Z,23.99
2022-08-05T07:55:16.044Z,24.04
2022-08-05T07:58:57.865Z,24.14
2022-08-05T08:01:57.534Z,24.26
2022-08-05T08:05:00.970Z,24.52
2022-08-05T08:08:02.643Z,24.88
2022-08-05T08:11:04.326Z,25.14
2022-08-05T08:14:10.533Z,25.21
2022-08-05T08:17:21.838Z,25.23
2022-08-05T08:20:59.689Z,25.22
2022-08-05T08:24:01.502Z,25.32
2022-08-05T08:27:06.941Z,25.47
2022-08-05T08:30:27.617Z,25.57
2022-08-05T08:33:35.883Z,25.62
2022-08-05T08:36:48.795Z,25.71
2022-08-05T08:39:56.539Z,26.02
2022-08-05T08:45:16.492Z,26.04
2022-08-05T08:46:20.842Z,26.06
2022-08-05T08:50:23.482Z,25.96
2022-08-05T08:52:51.749Z,26.08
2022-08-05T08:56:04.249Z,26.05
2022-08-05T08:59:14.658Z,26.21
2022-08-05T09:02:21.418Z,26.36
2022-08-05T09:05:38.297Z,26.36
2022-08-05T09:08:51.459Z,26.36
2022-08-05T09:11:55.335Z,26.51
2022-08-05T09:15:06.363Z,26.67
2022-08-05T09:18:09.046Z,26.79
2022-08-05T09:21:20.679Z,26.88
2022-08-05T09:24:33.737Z,26.84
2022-08-05T09:28:05.016Z,26.96
2022-08-05T09:31:00.663Z,27.05
2022-08-05T09:34:19.721Z,27.19
2022-08-05T09:38:11.948Z,27.26
2022-08-05T09:40:53.794Z,27.27
2022-08-05T09:43:55.727Z,27.25
2022-08-05T09:47:10.506Z,27.37
2022-08-05T09:50:17.912Z,27.60
2022-08-05T09:53:54.336Z,27.42
2022-08-05T09:56:57.529Z,27.50
2022-08-05T10:00:00.582Z,27.65
2022-08-05T10:03:09.264Z,27.62
2022-08-05T10:06:15.493Z,27.61
2022-08-05T10:09:27.314Z,27.49
2022-08-05T10:12:34.018Z,27.56
2022-08-05T10:15:37.205Z,27.46
2022-08-05T10:18:43.139Z,27.56
2022-08-05T10:21:49.915Z,27.54
2022-08-05T10:24:55.926Z,27.65
2022-08-05T10:28:09.414Z,27.69
2022-08-05T10:32:48.396Z,27.76
2022-08-05T10:34:40.955Z,28.01
2022-08-05T10:37:45.056Z,28.18
2022-08-05T10:40:52.312Z,28.30
2022-08-05T10:44:01.378Z,28.27
2022-08-05T10:47:25.777Z,28.31
2022-08-05T10:50:35.297Z,28.46
2022-08-05T10:53:42.612Z,28.67
2022-08-05T10:56:49.396Z,28.63
2022-08-05T11:00:09.090Z,28.46
2022-08-05T11:03:23.720Z,28.68
2022-08-05T11:06:30.742Z,28.71
2022-08-05T11:09:46.648Z,28.76
2022-08-05T11:12:50.420Z,28.78
2022-08-05T11:16:19.379Z,28.83
2022-08-05T11:20:11.466Z,28.98
2022-08-05T11:22:50.057Z,29.04
2022-08-05T11:26:09.918Z,28.96
2022-08-05T11:29:34.138Z,28.84
2022-08-05T11:32:35.958Z,28.90
2022-08-05T11:36:07.877Z,29.01
2022-08-05T11:39:10.694Z,29.29
2022-08-05T11:42:13.224Z,29.47
2022-08-05T11:45:30.492Z,29.41
2022-08-05T11:48:43.362Z,29.40
2022-08-05T11:51:49.554Z,29.31
2022-08-05T11:54:54.987Z,29.31
2022-08-05T11:58:09.150Z,29.41
2022-08-05T12:01:15.622Z,29.33
2022-08-05T12:04:21.164Z,29.28
2022-08-05T12:08:07.814Z,29.43
2022-08-05T12:10:48.818Z,29.54
2022-08-05T12:13:54.355Z,29.50
2022-08-05T12:18:00.672Z,29.54
2022-08-05T12:20:33.169Z,29.75
2022-08-05T12:23:35.345Z,29.84
2022-08-05T12:26:47.597Z,29.98
2022-08-05T12:29:58.516Z,30.07
2022-08-05T12:33:07.215Z,30.13
2022-08-05T12:36:23.508Z,30.09
2022-08-05T12:39:27.950Z,30.31
2022-08-05T12:42:30.352Z,30.35
2022-08-05T12:45:42.703Z,30.47
2022-08-05T12:48:59.961Z,30.58
2022-08-05T12:52:12.659Z,30.70
2022-08-05T12:55:22.345Z,30.61
2022-08-05T12:58:49.459Z,30.53
2022-08-05T13:02:00.628Z,30.72
2022-08-05T13:05:08.411Z,30.69
2022-08-05T13:08:17.282Z,30.80
2022-08-05T13:11:35.085Z,30.65
2022-08-05T13:14:41.749Z,30.45
2022-08-05T13:17:53.150Z,30.23
2022-08-05T13:20:56.375Z,30.29
2022-08-05T13:23:58.679Z,30.38
2022-08-05T13:27:00.572Z,30.29
2022-08-05T13:30:36.131Z,30.39
2022-08-05T13:34:23.364Z,30.46
2022-08-05T13:36:48.383Z,30.62
2022-08-05T13:40:16.401Z,30.76
2022-08-05T13:43:12.729Z,30.80
2022-08-05T13:46:43.692Z,30.74
2022-08-05T13:49:46.592Z,30.85
2022-08-05T13:52:51.763Z,30.91
2022-08-05T13:55:58.868Z,31.05
2022-08-05T13:59:06.037Z,31.01
2022-08-05T14:02:08.535Z,31.06
2022-08-05T14:05:29.742Z,31.00
2022-08-05T14:08:44.525Z,31.04
2022-08-05T14:12:04.076Z,31.07
2022-08-05T14:16:05.879Z,31.13
2022-08-05T14:18:30.338Z,31.07
2022-08-05T14:22:08.983Z,31.13
2022-08-05T14:24:54.930Z,31.21
2022-08-05T14:27:56.608Z,31.33
2022-08-05T14:31:00.449Z,31.28
2022-08-05T14:34:02.594Z,31.37
2022-08-05T14:37:04.778Z,31.27
2022-08-05T14:40:08.520Z,31.30
2022-08-05T14:43:11.113Z,31.34
2022-08-05T14:46:12.838Z,31.36
2022-08-05T14:49:14.527Z,31.38
2022-08-05T14:52:30.716Z,31.43
2022-08-05T14:55:40.217Z,31.43
2022-08-05T14:58:47.942Z,31.48
2022-08-05T15:01:55.003Z,31.53
2022-08-05T15:04:58.486Z,31.65
2022-08-05T15:08:12.464Z,31.49
2022-08-05T15:11:19.985Z,31.49
2022-08-05T15:14:35.704Z,31.55
2022-08-05T15:17:47.172Z,31.61
2022-08-05T15:20:54.843Z,31.61
2022-08-05T15:23:56.487Z,31.53
2022-08-05T15:27:00.991Z,31.55
2022-08-05T15:30:03.671Z,31.20
2022-08-05T15:33:05.845Z,31.30
2022-08-05T15:36:16.976Z,31.36
2022-08-05T15:41:01.542Z,31.28
2022-08-05T15:42:55.195Z,31.01
2022-08-05T15:46:02.087Z,30.75
2022-08-05T15:49:09.855Z,30.62
2022-08-05T15:52:29.669Z,30.44
2022-08-05T15:56:01.944Z,30.11
2022-08-05T15:58:57.796Z,29.94
2022-08-05T16:01:59.583Z,29.77
2022-08-05T16:05:03.175Z,29.72
2022-08-05T16:08:07.002Z,29.70
2022-08-05T16:11:09.883Z,29.73
2022-08-05T16:14:17.472Z,29.49
2022-08-05T16:17:19.347Z,29.43
2022-08-05T16:20:20.992Z,29.52
2022-08-05T16:23:22.670Z,29.56
2022-08-05T16:26:26.454Z,29.52
2022-08-05T16:29:31.217Z,29.57
2022-08-05T16:32:39.423Z,29.49
2022-08-05T16:35:42.015Z,29.31
2022-08-05T16:38:44.496Z,29.27
2022-08-05T16:42:27.672Z,29.15
2022-08-05T16:46:03.613Z,29.14
2022-08-05T16:48:41.737Z,29.12
2022-08-05T16:51:51.286Z,29.04
2022-08-05T16:54:56.674Z,28.92
2022-08-05T16:58:01.576Z,28.73
2022-08-05T17:01:06.789Z,28.85
2022-08-05T17:04:12.136Z,28.88
2022-08-05T17:07:16.842Z,28.92
2022-08-05T17:10:38.541Z,28.75
2022-08-05T17:13:41.534Z,28.76
2022-08-05T17:16:45.449Z,28.59
2022-08-05T17:19:55.390Z,28.41
2022-08-05T17:22:57.382Z,28.36
2022-08-05T17:26:00.462Z,28.29
2022-08-05T17:29:07.337Z,28.27
2022-08-05T17:32:17.153Z,28.07
2022-08-05T17:35:20.834Z,27.94
2022-08-05T17:38:22.861Z,27.89
2022-08-05T17:42:17.650Z,27.74
2022-08-05T17:44:50.153Z,27.60
2022-08-05T17:47:56.053Z,27.49
2022-08-05T17:50:57.971Z,27.42
2022-08-05T17:54:00.035Z,27.28
2022-08-05T17:57:01.747Z,27.22
2022-08-05T18:00:05.170Z,27.17
2022-08-05T18:03:09.016Z,27.04
2022-08-05T18:06:12.215Z,26.93
2022-08-05T18:09:17.167Z,26.92
2022-08-05T18:12:22.256Z,26.92
2022-08-05T18:15:26.206Z,26.70
2022-08-05T18:18:29.206Z,26.52
2022-08-05T18:22:07.136Z,26.54
2022-08-05T18:24:53.455Z,26.42
2022-08-05T18:27:55.185Z,26.33
2022-08-05T18:30:58.621Z,26.28
2022-08-05T18:34:01.901Z,26.29
2022-08-05T18:37:03.790Z,26.28
2022-08-05T18:41:52.671Z,26.22
2022-08-05T18:43:38.287Z,26.20
2022-08-05T18:46:44.557Z,26.12
2022-08-05T18:49:57.809Z,26.15
2022-08-05T18:53:01.513Z,26.11
2022-08-05T18:56:12.684Z,25.95
2022-08-05T18:59:43.212Z,25.89
2022-08-05T19:02:36.408Z,25.90
2022-08-05T19:06:12.267Z,25.84
2022-08-05T19:09:04.060Z,25.67
2022-08-05T19:12:06.123Z,25.65
2022-08-05T19:15:58.295Z,25.62
2022-08-05T19:18:34.130Z,25.58
2022-08-05T19:21:37.877Z,25.41
2022-08-05T19:24:39.837Z,25.50
2022-08-05T19:27:58.179Z,25.55
2022-08-05T19:31:00.271Z,25.71
2022-08-05T19:34:03.176Z,25.78
2022-08-05T19:37:06.682Z,25.54
2022-08-05T19:40:11.746Z,25.49
2022-08-05T19:44:04.133Z,25.61
2022-08-05T19:46:36.056Z,25.52
2022-08-05T19:49:41.371Z,25.36
2022-08-05T19:52:47.761Z,25.35
2022-08-05T19:56:15.438Z,25.14
2022-08-05T19:59:51.426Z,25.39
2022-08-05T20:02:34.060Z,25.37
2022-08-05T20:05:43.214Z,25.47
2022-08-05T20:08:47.426Z,25.50
2022-08-05T20:11:51.620Z,25.54
2022-08-05T20:14:53.641Z,25.61
2022-08-05T20:17:55.600Z,25.70
2022-08-05T20:20:57.532Z,25.70
2022-08-05T20:24:03.038Z,25.62
2022-08-05T20:27:11.423Z,25.49
2022-08-05T20:30:13.665Z,25.03
2022-08-05T20:33:15.505Z,24.81
2022-08-05T20:36:17.995Z,25.10
2022-08-05T20:39:21.450Z,25.20
2022-08-05T20:42:23.395Z,25.24
2022-08-05T20:45:55.734Z,25.33
2022-08-05T20:48:51.732Z,25.38
2022-08-05T20:51:54.035Z,25.34
2022-08-05T20:55:55.247Z,25.44
2022-08-05T20:58:19.038Z,25.49
2022-08-05T21:01:37.261Z,25.49
2022-08-05T21:04:40.387Z,25.46
2022-08-05T21:07:50.571Z,25.39
2022-08-05T21:10:55.147Z,25.24
2022-08-05T21:14:00.239Z,25.27
2022-08-05T21:17:01.910Z,25.17
2022-08-05T21:20:10.019Z,25.10
2022-08-05T21:23:12.081Z,25.04
2022-08-05T21:26:17.172Z,25.13
2022-08-05T21:29:19.364Z,25.11
2022-08-05T21:32:27.030Z,25.22
2022-08-05T21:35:29.850Z,25.09
2022-08-05T21:38:32.242Z,24.98
2022-08-05T21:41:35.590Z,25.04
2022-08-05T21:44:37.777Z,24.66
2022-08-05T21:47:55.716Z,24.47
2022-08-05T21:50:59.482Z,24.49
2022-08-05T21:54:03.802Z,24.61
2022-08-05T21:57:30.743Z,24.67
2022-08-05T22:00:28.870Z,24.68
2022-08-05T22:03:52.851Z,24.73
2022-08-05T22:06:52.553Z,24.80
2022-08-05T22:09:54.241Z,24.84
2022-08-05T22:13:08.643Z,24.89
2022-08-05T22:16:41.623Z,24.79
2022-08-05T22:20:00.302Z,24.88
2022-08-05T22:23:16.560Z,24.83
2022-08-05T22:26:18.942Z,24.66
2022-08-05T22:29:26.547Z,24.63
2022-08-05T22:32:28.697Z,23.24
2022-08-05T22:35:31.212Z,23.27
2022-08-05T22:38:50.081Z,23.24
2022-08-05T22:42:11.385Z,23.21
2022-08-05T22:45:14.756Z,23.32
2022-08-05T22:48:16.560Z,22.98
2022-08-05T22:52:03.062Z,22.79
2022-08-05T22:54:48.765Z,22.55
2022-08-05T22:57:52.087Z,22.28
2022-08-05T23:00:57.038Z,22.04
2022-08-05T23:03:59.744Z,21.85
2022-08-05T23:07:01.840Z,21.78
2022-08-05T23:10:03.624Z,21.88
2022-08-05T23:13:05.282Z,21.81
2022-08-05T23:16:08.339Z,21.78
2022-08-05T23:19:14.512Z,21.77
2022-08-05T23:22:28.324Z,21.70
2022-08-05T23:25:53.301Z,21.61
2022-08-05T23:28:51.848Z,21.50
2022-08-05T23:31:57.142Z,21.54
2022-08-05T23:34:59.003Z,21.44
2022-08-05T23:38:00.652Z,21.42
2022-08-05T23:41:02.518Z,21.29
2022-08-05T23:44:05.930Z,21.29
2022-08-05T23:47:15.139Z,21.05
2022-08-05T23:50:20.220Z,20.87
2022-08-05T23:53:22.704Z,20.90
2022-08-05T23:56:27.238Z,20.86
